sensor_id;sensor_type;location;lat;lon;timestamp;temperature;humidity
5560;DHT22;2803;47.916;8.074;2023-11-19T00:00:58;12.60;99.90
5560;DHT22;2803;47.916;8.074;2023-11-19T00:03:25;12.40;99.90
5560;DHT22;2803;47.916;8.074;2023-11-19T00:05:52;12.30;99.90
5560;DHT22;2803;47.916;8.074;2023-11-19T00:08:20;12.40;99.90
5560;DHT22;2803;47.916;8.074;2023-11-19T00:10:46;12.50;99.90
5560;DHT22;2803;47.916;8.074;2023-11-19T00:13:13;12.10;99.90
5560;DHT22;2803;47.916;8.074;2023-11-19T00:15:39;12.40;99.90
5560;DHT22;2803;47.916;8.074;2023-11-19T00:18:06;12.30;99.90
5560;DHT22;2803;47.916;8.074;2023-11-19T00:20:32;12.50;99.90
5560;DHT22;2803;47.916;8.074;2023-11-19T00:22:59;12.70;99.90
5560;DHT22;2803;47.916;8.074;2023-11-19T00:25:29;12.50;99.90
5560;DHT22;2803;47.916;8.074;2023-11-19T00:27:55;12.60;99.90
5560;DHT22;2803;47.916;8.074;2023-11-19T00:30:22;12.40;99.90
5560;DHT22;2803;47.916;8.074;2023-11-19T00:32:49;12.20;99.90
5560;DHT22;2803;47.916;8.074;2023-11-19T00:35:15;12.20;99.90
5560;DHT22;2803;47.916;8.074;2023-11-19T00:37:42;12.00;99.90
5560;DHT22;2803;47.916;8.074;2023-11-19T00:40:11;12.40;99.90
5560;DHT22;2803;47.916;8.074;2023-11-19T00:42:39;12.60;99.90
5560;DHT22;2803;47.916;8.074;2023-11-19T00:45:06;12.80;99.90
5560;DHT22;2803;47.916;8.074;2023-11-19T00:47:35;12.50;99.90
5560;DHT22;2803;47.916;8.074;2023-11-19T00:50:01;12.60;99.90
5560;DHT22;2803;47.916;8.074;2023-11-19T00:52:28;12.50;99.90
5560;DHT22;2803;47.916;8.074;2023-11-19T00:54:55;12.80;99.90
5560;DHT22;2803;47.916;8.074;2023-11-19T00:57:22;12.80;99.90
5560;DHT22;2803;47.916;8.074;2023-11-19T00:59:50;12.60;99.90
5560;DHT22;2803;47.916;8.074;2023-11-19T01:02:17;12.30;99.90
5560;DHT22;2803;47.916;8.074;2023-11-19T01:04:44;12.60;99.90
5560;DHT22;2803;47.916;8.074;2023-11-19T01:07:11;12.70;99.90
5560;DHT22;2803;47.916;8.074;2023-11-19T01:09:38;12.60;99.90
5560;DHT22;2803;47.916;8.074;2023-11-19T01:12:05;12.60;99.90
5560;DHT22;2803;47.916;8.074;2023-11-19T01:14:32;13.00;99.90
5560;DHT22;2803;47.916;8.074;2023-11-19T01:17:00;13.20;99.90
5560;DHT22;2803;47.916;8.074;2023-11-19T01:19:27;13.30;99.90
5560;DHT22;2803;47.916;8.074;2023-11-19T01:21:54;13.50;99.90
5560;DHT22;2803;47.916;8.074;2023-11-19T01:24:21;13.50;99.90
5560;DHT22;2803;47.916;8.074;2023-11-19T01:26:48;13.40;99.90
5560;DHT22;2803;47.916;8.074;2023-11-19T01:29:15;12.90;99.90
5560;DHT22;2803;47.916;8.074;2023-11-19T01:31:42;12.80;99.90
5560;DHT22;2803;47.916;8.074;2023-11-19T01:34:10;13.20;99.90
5560;DHT22;2803;47.916;8.074;2023-11-19T01:36:37;13.20;99.90
5560;DHT22;2803;47.916;8.074;2023-11-19T01:39:04;13.00;99.90
5560;DHT22;2803;47.916;8.074;2023-11-19T01:41:34;12.80;99.90
5560;DHT22;2803;47.916;8.074;2023-11-19T01:44:01;13.00;99.90
5560;DHT22;2803;47.916;8.074;2023-11-19T01:46:28;13.40;99.90
5560;DHT22;2803;47.916;8.074;2023-11-19T01:48:55;13.40;99.90
5560;DHT22;2803;47.916;8.074;2023-11-19T01:51:23;13.80;99.90
5560;DHT22;2803;47.916;8.074;2023-11-19T01:53:50;14.00;99.90
5560;DHT22;2803;47.916;8.074;2023-11-19T01:56:17;13.80;99.90
5560;DHT22;2803;47.916;8.074;2023-11-19T01:58:45;13.90;99.90
5560;DHT22;2803;47.916;8.074;2023-11-19T02:01:12;13.60;99.90
5560;DHT22;2803;47.916;8.074;2023-11-19T02:03:39;13.70;99.90
5560;DHT22;2803;47.916;8.074;2023-11-19T02:06:06;13.70;99.90
5560;DHT22;2803;47.916;8.074;2023-11-19T02:08:36;13.90;99.90
5560;DHT22;2803;47.916;8.074;2023-11-19T02:11:04;13.90;99.90
5560;DHT22;2803;47.916;8.074;2023-11-19T02:13:32;14.00;99.90
5560;DHT22;2803;47.916;8.074;2023-11-19T02:15:58;13.90;99.90
5560;DHT22;2803;47.916;8.074;2023-11-19T02:18:27;14.00;99.90
5560;DHT22;2803;47.916;8.074;2023-11-19T02:20:54;14.10;99.90
5560;DHT22;2803;47.916;8.074;2023-11-19T02:23:22;13.50;99.90
5560;DHT22;2803;47.916;8.074;2023-11-19T02:25:59;13.60;99.90
5560;DHT22;2803;47.916;8.074;2023-11-19T02:28:28;13.40;99.90
5560;DHT22;2803;47.916;8.074;2023-11-19T02:30:54;13.50;99.90
5560;DHT22;2803;47.916;8.074;2023-11-19T02:33:21;13.70;99.90
5560;DHT22;2803;47.916;8.074;2023-11-19T02:35:48;13.40;99.90
5560;DHT22;2803;47.916;8.074;2023-11-19T02:38:15;13.60;99.90
5560;DHT22;2803;47.916;8.074;2023-11-19T02:40:41;13.80;99.90
5560;DHT22;2803;47.916;8.074;2023-11-19T02:43:08;13.90;99.90
5560;DHT22;2803;47.916;8.074;2023-11-19T02:45:36;14.10;99.90
5560;DHT22;2803;47.916;8.074;2023-11-19T02:48:03;13.80;99.90
5560;DHT22;2803;47.916;8.074;2023-11-19T02:50:32;13.60;99.90
5560;DHT22;2803;47.916;8.074;2023-11-19T02:52:58;13.70;99.90
5560;DHT22;2803;47.916;8.074;2023-11-19T02:55:26;13.80;99.90
5560;DHT22;2803;47.916;8.074;2023-11-19T02:57:56;13.60;99.90
5560;DHT22;2803;47.916;8.074;2023-11-19T03:00:24;13.40;99.90
5560;DHT22;2803;47.916;8.074;2023-11-19T03:02:59;13.60;99.90
5560;DHT22;2803;47.916;8.074;2023-11-19T03:05:30;13.60;99.90
5560;DHT22;2803;47.916;8.074;2023-11-19T03:07:57;13.40;99.90
5560;DHT22;2803;47.916;8.074;2023-11-19T03:10:24;12.90;99.90
5560;DHT22;2803;47.916;8.074;2023-11-19T03:12:51;12.80;99.90
5560;DHT22;2803;47.916;8.074;2023-11-19T03:15:18;12.80;99.90
5560;DHT22;2803;47.916;8.074;2023-11-19T03:17:46;12.60;99.90
5560;DHT22;2803;47.916;8.074;2023-11-19T03:20:15;12.70;99.90
5560;DHT22;2803;47.916;8.074;2023-11-19T03:22:42;12.80;99.90
5560;DHT22;2803;47.916;8.074;2023-11-19T03:25:09;12.70;99.90
5560;DHT22;2803;47.916;8.074;2023-11-19T03:27:36;12.70;99.90
5560;DHT22;2803;47.916;8.074;2023-11-19T03:30:04;12.80;99.90
5560;DHT22;2803;47.916;8.074;2023-11-19T03:32:31;13.00;99.90
5560;DHT22;2803;47.916;8.074;2023-11-19T03:34:58;13.10;99.90
5560;DHT22;2803;47.916;8.074;2023-11-19T03:37:27;13.10;99.90
5560;DHT22;2803;47.916;8.074;2023-11-19T03:39:53;12.70;99.90
5560;DHT22;2803;47.916;8.074;2023-11-19T03:42:23;12.70;99.90
5560;DHT22;2803;47.916;8.074;2023-11-19T03:44:49;12.60;99.90
5560;DHT22;2803;47.916;8.074;2023-11-19T03:47:16;12.50;99.90
5560;DHT22;2803;47.916;8.074;2023-11-19T03:49:42;12.40;99.90
5560;DHT22;2803;47.916;8.074;2023-11-19T03:52:09;12.70;99.90
5560;DHT22;2803;47.916;8.074;2023-11-19T03:54:37;13.00;99.90
5560;DHT22;2803;47.916;8.074;2023-11-19T03:57:04;12.80;99.90
5560;DHT22;2803;47.916;8.074;2023-11-19T03:59:30;12.50;99.90
5560;DHT22;2803;47.916;8.074;2023-11-19T04:01:58;12.70;99.90
5560;DHT22;2803;47.916;8.074;2023-11-19T04:04:26;12.80;99.90
5560;DHT22;2803;47.916;8.074;2023-11-19T04:06:52;12.60;99.90
5560;DHT22;2803;47.916;8.074;2023-11-19T04:09:19;12.80;99.90
5560;DHT22;2803;47.916;8.074;2023-11-19T04:11:47;12.90;99.90
5560;DHT22;2803;47.916;8.074;2023-11-19T04:14:14;12.70;99.90
5560;DHT22;2803;47.916;8.074;2023-11-19T04:16:43;12.50;99.90
5560;DHT22;2803;47.916;8.074;2023-11-19T04:19:10;12.40;99.90
5560;DHT22;2803;47.916;8.074;2023-11-19T04:21:36;12.60;99.90
5560;DHT22;2803;47.916;8.074;2023-11-19T04:24:03;12.50;99.90
5560;DHT22;2803;47.916;8.074;2023-11-19T04:26:30;12.50;99.90
5560;DHT22;2803;47.916;8.074;2023-11-19T04:28:58;12.30;99.90
5560;DHT22;2803;47.916;8.074;2023-11-19T04:31:28;12.10;99.90
5560;DHT22;2803;47.916;8.074;2023-11-19T04:33:55;12.20;99.90
5560;DHT22;2803;47.916;8.074;2023-11-19T04:36:22;12.60;99.90
5560;DHT22;2803;47.916;8.074;2023-11-19T04:38:49;13.00;99.90
5560;DHT22;2803;47.916;8.074;2023-11-19T04:41:16;13.30;99.90
5560;DHT22;2803;47.916;8.074;2023-11-19T04:43:43;13.20;99.90
5560;DHT22;2803;47.916;8.074;2023-11-19T04:46:11;13.00;99.90
5560;DHT22;2803;47.916;8.074;2023-11-19T04:48:37;13.00;99.90
5560;DHT22;2803;47.916;8.074;2023-11-19T04:51:05;13.30;99.90
5560;DHT22;2803;47.916;8.074;2023-11-19T04:53:31;13.00;99.90
5560;DHT22;2803;47.916;8.074;2023-11-19T04:55:58;13.30;99.90
5560;DHT22;2803;47.916;8.074;2023-11-19T04:58:24;13.70;99.90
5560;DHT22;2803;47.916;8.074;2023-11-19T05:00:51;13.80;99.90
5560;DHT22;2803;47.916;8.074;2023-11-19T05:03:19;13.70;99.90
5560;DHT22;2803;47.916;8.074;2023-11-19T05:05:46;13.60;99.90
5560;DHT22;2803;47.916;8.074;2023-11-19T05:08:12;13.30;99.90
5560;DHT22;2803;47.916;8.074;2023-11-19T05:10:39;13.40;99.90
5560;DHT22;2803;47.916;8.074;2023-11-19T05:13:06;13.40;99.90
5560;DHT22;2803;47.916;8.074;2023-11-19T05:15:33;13.30;99.90
5560;DHT22;2803;47.916;8.074;2023-11-19T05:17:59;13.30;99.90
5560;DHT22;2803;47.916;8.074;2023-11-19T05:20:27;13.40;99.90
5560;DHT22;2803;47.916;8.074;2023-11-19T05:22:54;13.30;99.90
5560;DHT22;2803;47.916;8.074;2023-11-19T05:25:20;13.30;99.90
5560;DHT22;2803;47.916;8.074;2023-11-19T05:27:47;13.00;99.90
5560;DHT22;2803;47.916;8.074;2023-11-19T05:30:14;12.90;99.90
5560;DHT22;2803;47.916;8.074;2023-11-19T05:32:40;13.30;99.90
5560;DHT22;2803;47.916;8.074;2023-11-19T05:35:08;13.20;99.90
5560;DHT22;2803;47.916;8.074;2023-11-19T05:37:36;13.20;99.90
5560;DHT22;2803;47.916;8.074;2023-11-19T05:40:03;13.10;99.90
5560;DHT22;2803;47.916;8.074;2023-11-19T05:42:34;13.20;99.90
5560;DHT22;2803;47.916;8.074;2023-11-19T05:45:00;12.70;99.90
5560;DHT22;2803;47.916;8.074;2023-11-19T05:47:27;12.60;99.90
5560;DHT22;2803;47.916;8.074;2023-11-19T05:49:53;12.60;99.90
5560;DHT22;2803;47.916;8.074;2023-11-19T05:52:20;12.70;99.90
5560;DHT22;2803;47.916;8.074;2023-11-19T05:54:48;12.60;99.90
5560;DHT22;2803;47.916;8.074;2023-11-19T05:57:17;12.70;99.90
5560;DHT22;2803;47.916;8.074;2023-11-19T05:59:45;12.90;99.90
5560;DHT22;2803;47.916;8.074;2023-11-19T06:02:12;12.90;99.90
5560;DHT22;2803;47.916;8.074;2023-11-19T06:04:38;12.90;99.90
5560;DHT22;2803;47.916;8.074;2023-11-19T06:07:05;12.90;99.90
5560;DHT22;2803;47.916;8.074;2023-11-19T06:09:32;12.80;99.90
5560;DHT22;2803;47.916;8.074;2023-11-19T06:12:00;12.80;99.90
5560;DHT22;2803;47.916;8.074;2023-11-19T06:14:28;13.20;99.90
5560;DHT22;2803;47.916;8.074;2023-11-19T06:16:55;12.90;99.90
5560;DHT22;2803;47.916;8.074;2023-11-19T06:19:22;12.60;99.90
5560;DHT22;2803;47.916;8.074;2023-11-19T06:21:50;13.00;99.90
5560;DHT22;2803;47.916;8.074;2023-11-19T06:24:16;12.90;99.90
5560;DHT22;2803;47.916;8.074;2023-11-19T06:26:43;12.80;99.90
5560;DHT22;2803;47.916;8.074;2023-11-19T06:29:10;12.90;99.90
5560;DHT22;2803;47.916;8.074;2023-11-19T06:31:36;12.90;99.90
5560;DHT22;2803;47.916;8.074;2023-11-19T06:34:03;12.90;99.90
5560;DHT22;2803;47.916;8.074;2023-11-19T06:36:30;13.30;99.90
5560;DHT22;2803;47.916;8.074;2023-11-19T06:38:56;13.40;99.90
5560;DHT22;2803;47.916;8.074;2023-11-19T06:41:23;13.20;99.90
5560;DHT22;2803;47.916;8.074;2023-11-19T06:43:49;12.80;99.90
5560;DHT22;2803;47.916;8.074;2023-11-19T06:46:19;12.70;99.90
5560;DHT22;2803;47.916;8.074;2023-11-19T06:48:46;12.80;99.90
5560;DHT22;2803;47.916;8.074;2023-11-19T06:51:12;13.00;99.90
5560;DHT22;2803;47.916;8.074;2023-11-19T06:53:39;13.10;99.90
5560;DHT22;2803;47.916;8.074;2023-11-19T06:56:17;13.10;99.90
5560;DHT22;2803;47.916;8.074;2023-11-19T06:58:44;13.10;99.90
5560;DHT22;2803;47.916;8.074;2023-11-19T07:01:10;12.90;99.90
5560;DHT22;2803;47.916;8.074;2023-11-19T07:03:38;13.40;99.90
5560;DHT22;2803;47.916;8.074;2023-11-19T07:06:05;13.70;99.90
5560;DHT22;2803;47.916;8.074;2023-11-19T07:08:32;13.60;99.90
5560;DHT22;2803;47.916;8.074;2023-11-19T07:10:59;13.40;99.90
5560;DHT22;2803;47.916;8.074;2023-11-19T07:13:26;13.60;99.90
5560;DHT22;2803;47.916;8.074;2023-11-19T07:15:53;13.60;99.90
5560;DHT22;2803;47.916;8.074;2023-11-19T07:18:20;14.10;99.90
5560;DHT22;2803;47.916;8.074;2023-11-19T07:20:48;14.00;99.90
5560;DHT22;2803;47.916;8.074;2023-11-19T07:23:15;13.30;99.90
5560;DHT22;2803;47.916;8.074;2023-11-19T07:25:42;13.20;99.90
5560;DHT22;2803;47.916;8.074;2023-11-19T07:28:10;13.20;99.90
5560;DHT22;2803;47.916;8.074;2023-11-19T07:30:37;13.50;99.90
5560;DHT22;2803;47.916;8.074;2023-11-19T07:33:04;13.70;99.90
5560;DHT22;2803;47.916;8.074;2023-11-19T07:35:31;13.80;99.90
5560;DHT22;2803;47.916;8.074;2023-11-19T07:37:59;13.80;99.90
5560;DHT22;2803;47.916;8.074;2023-11-19T07:40:26;13.90;99.90
5560;DHT22;2803;47.916;8.074;2023-11-19T07:42:52;13.50;99.90
5560;DHT22;2803;47.916;8.074;2023-11-19T07:45:19;13.80;99.90
5560;DHT22;2803;47.916;8.074;2023-11-19T07:47:46;13.80;99.90
5560;DHT22;2803;47.916;8.074;2023-11-19T07:50:13;13.70;99.90
5560;DHT22;2803;47.916;8.074;2023-11-19T07:52:42;13.50;99.90
5560;DHT22;2803;47.916;8.074;2023-11-19T07:55:10;13.90;99.90
5560;DHT22;2803;47.916;8.074;2023-11-19T07:57:37;13.90;99.90
5560;DHT22;2803;47.916;8.074;2023-11-19T08:00:04;13.90;99.90
5560;DHT22;2803;47.916;8.074;2023-11-19T08:02:32;14.10;99.90
5560;DHT22;2803;47.916;8.074;2023-11-19T08:04:58;14.20;99.90
5560;DHT22;2803;47.916;8.074;2023-11-19T08:07:25;14.10;99.90
5560;DHT22;2803;47.916;8.074;2023-11-19T08:09:52;14.20;99.90
5560;DHT22;2803;47.916;8.074;2023-11-19T08:12:20;14.50;99.90
5560;DHT22;2803;47.916;8.074;2023-11-19T08:14:46;14.30;99.90
5560;DHT22;2803;47.916;8.074;2023-11-19T08:17:14;14.50;99.90
5560;DHT22;2803;47.916;8.074;2023-11-19T08:19:41;14.30;99.90
5560;DHT22;2803;47.916;8.074;2023-11-19T08:22:08;14.30;99.90
5560;DHT22;2803;47.916;8.074;2023-11-19T08:24:35;14.20;99.90
5560;DHT22;2803;47.916;8.074;2023-11-19T08:27:02;14.10;99.90
5560;DHT22;2803;47.916;8.074;2023-11-19T08:29:30;14.00;99.90
5560;DHT22;2803;47.916;8.074;2023-11-19T08:31:57;13.90;99.90
5560;DHT22;2803;47.916;8.074;2023-11-19T08:34:23;13.90;99.90
5560;DHT22;2803;47.916;8.074;2023-11-19T08:36:51;13.90;99.90
5560;DHT22;2803;47.916;8.074;2023-11-19T08:39:18;13.80;99.90
5560;DHT22;2803;47.916;8.074;2023-11-19T08:41:45;14.00;99.90
5560;DHT22;2803;47.916;8.074;2023-11-19T08:44:11;14.30;99.90
5560;DHT22;2803;47.916;8.074;2023-11-19T08:46:46;14.10;99.90
5560;DHT22;2803;47.916;8.074;2023-11-19T08:49:13;14.20;99.90
5560;DHT22;2803;47.916;8.074;2023-11-19T08:51:39;14.30;99.90
5560;DHT22;2803;47.916;8.074;2023-11-19T08:54:07;14.40;99.90
5560;DHT22;2803;47.916;8.074;2023-11-19T08:56:33;14.10;99.90
5560;DHT22;2803;47.916;8.074;2023-11-19T08:59:00;14.00;99.90
5560;DHT22;2803;47.916;8.074;2023-11-19T09:01:27;14.00;99.90
5560;DHT22;2803;47.916;8.074;2023-11-19T09:03:55;14.60;99.90
5560;DHT22;2803;47.916;8.074;2023-11-19T09:06:22;14.70;99.90
5560;DHT22;2803;47.916;8.074;2023-11-19T09:08:49;14.80;99.90
5560;DHT22;2803;47.916;8.074;2023-11-19T09:11:16;14.60;99.90
5560;DHT22;2803;47.916;8.074;2023-11-19T09:13:43;14.90;99.90
5560;DHT22;2803;47.916;8.074;2023-11-19T09:16:11;15.20;99.90
5560;DHT22;2803;47.916;8.074;2023-11-19T09:18:38;15.40;99.90
5560;DHT22;2803;47.916;8.074;2023-11-19T09:21:06;15.20;99.90
5560;DHT22;2803;47.916;8.074;2023-11-19T09:23:32;15.30;99.90
5560;DHT22;2803;47.916;8.074;2023-11-19T09:26:04;15.60;99.90
5560;DHT22;2803;47.916;8.074;2023-11-19T09:28:32;15.60;99.90
5560;DHT22;2803;47.916;8.074;2023-11-19T09:30:58;15.30;99.90
5560;DHT22;2803;47.916;8.074;2023-11-19T09:33:25;15.60;99.90
5560;DHT22;2803;47.916;8.074;2023-11-19T09:35:52;16.10;99.90
5560;DHT22;2803;47.916;8.074;2023-11-19T09:38:20;16.50;99.90
5560;DHT22;2803;47.916;8.074;2023-11-19T09:40:46;16.20;99.90
5560;DHT22;2803;47.916;8.074;2023-11-19T09:43:14;15.70;99.90
5560;DHT22;2803;47.916;8.074;2023-11-19T09:45:48;15.60;99.90
5560;DHT22;2803;47.916;8.074;2023-11-19T09:48:16;15.50;99.90
5560;DHT22;2803;47.916;8.074;2023-11-19T09:50:44;15.50;99.90
5560;DHT22;2803;47.916;8.074;2023-11-19T09:53:11;14.80;99.90
5560;DHT22;2803;47.916;8.074;2023-11-19T09:55:39;14.60;99.90
5560;DHT22;2803;47.916;8.074;2023-11-19T09:58:07;14.90;99.90
5560;DHT22;2803;47.916;8.074;2023-11-19T10:00:34;14.70;99.90
5560;DHT22;2803;47.916;8.074;2023-11-19T10:03:01;14.50;99.90
5560;DHT22;2803;47.916;8.074;2023-11-19T10:05:30;14.70;99.90
5560;DHT22;2803;47.916;8.074;2023-11-19T10:07:58;14.30;99.90
5560;DHT22;2803;47.916;8.074;2023-11-19T10:10:24;14.40;99.90
5560;DHT22;2803;47.916;8.074;2023-11-19T10:12:52;14.60;99.90
5560;DHT22;2803;47.916;8.074;2023-11-19T10:15:21;14.70;99.90
5560;DHT22;2803;47.916;8.074;2023-11-19T10:17:49;15.00;99.90
5560;DHT22;2803;47.916;8.074;2023-11-19T10:20:16;15.20;99.90
5560;DHT22;2803;47.916;8.074;2023-11-19T10:22:42;14.80;99.90
5560;DHT22;2803;47.916;8.074;2023-11-19T10:25:22;14.60;99.90
5560;DHT22;2803;47.916;8.074;2023-11-19T10:27:49;14.80;99.90
5560;DHT22;2803;47.916;8.074;2023-11-19T10:30:20;14.80;99.90
5560;DHT22;2803;47.916;8.074;2023-11-19T10:33:03;15.00;99.90
5560;DHT22;2803;47.916;8.074;2023-11-19T10:35:29;15.30;99.90
5560;DHT22;2803;47.916;8.074;2023-11-19T10:37:59;15.40;99.90
5560;DHT22;2803;47.916;8.074;2023-11-19T10:40:37;15.20;99.90
5560;DHT22;2803;47.916;8.074;2023-11-19T10:43:05;15.30;99.90
5560;DHT22;2803;47.916;8.074;2023-11-19T10:45:34;15.50;99.90
5560;DHT22;2803;47.916;8.074;2023-11-19T10:48:02;15.60;99.90
5560;DHT22;2803;47.916;8.074;2023-11-19T10:50:33;14.90;99.90
5560;DHT22;2803;47.916;8.074;2023-11-19T10:53:00;14.80;99.90
5560;DHT22;2803;47.916;8.074;2023-11-19T10:55:28;15.20;99.90
5560;DHT22;2803;47.916;8.074;2023-11-19T10:57:59;14.90;99.90
5560;DHT22;2803;47.916;8.074;2023-11-19T11:00:29;15.00;99.90
5560;DHT22;2803;47.916;8.074;2023-11-19T11:03:01;15.00;99.90
5560;DHT22;2803;47.916;8.074;2023-11-19T11:05:29;15.10;99.90
5560;DHT22;2803;47.916;8.074;2023-11-19T11:07:58;15.00;99.90
5560;DHT22;2803;47.916;8.074;2023-11-19T11:10:26;15.00;99.90
5560;DHT22;2803;47.916;8.074;2023-11-19T11:12:54;15.20;99.90
5560;DHT22;2803;47.916;8.074;2023-11-19T11:15:27;15.60;99.90
5560;DHT22;2803;47.916;8.074;2023-11-19T11:17:57;15.50;99.90
5560;DHT22;2803;47.916;8.074;2023-11-19T11:20:26;15.50;99.90
5560;DHT22;2803;47.916;8.074;2023-11-19T11:23:05;15.40;99.90
5560;DHT22;2803;47.916;8.074;2023-11-19T11:25:42;15.20;99.90
5560;DHT22;2803;47.916;8.074;2023-11-19T11:28:23;15.20;99.90
5560;DHT22;2803;47.916;8.074;2023-11-19T11:31:03;15.30;99.90
5560;DHT22;2803;47.916;8.074;2023-11-19T11:33:41;15.20;99.90
5560;DHT22;2803;47.916;8.074;2023-11-19T11:36:17;14.90;99.90
5560;DHT22;2803;47.916;8.074;2023-11-19T11:38:48;15.10;99.90
5560;DHT22;2803;47.916;8.074;2023-11-19T11:41:16;15.10;99.90
5560;DHT22;2803;47.916;8.074;2023-11-19T11:43:44;14.80;99.90
5560;DHT22;2803;47.916;8.074;2023-11-19T11:49:08;14.90;99.90
5560;DHT22;2803;47.916;8.074;2023-11-19T11:52:00;14.80;99.90
5560;DHT22;2803;47.916;8.074;2023-11-19T11:54:28;14.70;99.90
5560;DHT22;2803;47.916;8.074;2023-11-19T11:57:06;14.80;99.90
5560;DHT22;2803;47.916;8.074;2023-11-19T11:59:37;15.00;99.90
5560;DHT22;2803;47.916;8.074;2023-11-19T12:02:10;14.80;99.90
5560;DHT22;2803;47.916;8.074;2023-11-19T12:04:37;14.60;99.90
5560;DHT22;2803;47.916;8.074;2023-11-19T12:07:06;14.70;99.90
5560;DHT22;2803;47.916;8.074;2023-11-19T12:09:33;15.10;99.90
5560;DHT22;2803;47.916;8.074;2023-11-19T12:12:11;15.10;99.90
5560;DHT22;2803;47.916;8.074;2023-11-19T12:15:01;14.80;99.90
5560;DHT22;2803;47.916;8.074;2023-11-19T12:17:42;14.60;99.90
5560;DHT22;2803;47.916;8.074;2023-11-19T12:20:10;14.70;99.90
5560;DHT22;2803;47.916;8.074;2023-11-19T12:22:40;15.00;99.90
5560;DHT22;2803;47.916;8.074;2023-11-19T12:25:08;15.10;99.90
5560;DHT22;2803;47.916;8.074;2023-11-19T12:27:35;15.00;99.90
5560;DHT22;2803;47.916;8.074;2023-11-19T12:30:02;14.90;99.90
5560;DHT22;2803;47.916;8.074;2023-11-19T12:32:38;14.90;99.90
5560;DHT22;2803;47.916;8.074;2023-11-19T12:35:05;14.80;99.90
5560;DHT22;2803;47.916;8.074;2023-11-19T12:37:40;15.00;99.90
5560;DHT22;2803;47.916;8.074;2023-11-19T12:40:13;15.00;99.90
5560;DHT22;2803;47.916;8.074;2023-11-19T12:42:43;14.90;99.90
5560;DHT22;2803;47.916;8.074;2023-11-19T12:45:10;15.00;99.90
5560;DHT22;2803;47.916;8.074;2023-11-19T12:47:37;15.40;99.90
5560;DHT22;2803;47.916;8.074;2023-11-19T12:50:05;14.90;99.90
5560;DHT22;2803;47.916;8.074;2023-11-19T12:52:32;15.00;99.90
5560;DHT22;2803;47.916;8.074;2023-11-19T12:55:00;15.10;99.90
5560;DHT22;2803;47.916;8.074;2023-11-19T12:57:41;15.00;99.90
5560;DHT22;2803;47.916;8.074;2023-11-19T13:00:18;15.20;99.90
5560;DHT22;2803;47.916;8.074;2023-11-19T13:02:48;15.20;99.90
5560;DHT22;2803;47.916;8.074;2023-11-19T13:05:30;14.90;99.90
5560;DHT22;2803;47.916;8.074;2023-11-19T13:07:59;15.30;99.90
5560;DHT22;2803;47.916;8.074;2023-11-19T13:10:27;15.10;99.90
5560;DHT22;2803;47.916;8.074;2023-11-19T13:13:03;15.30;99.90
5560;DHT22;2803;47.916;8.074;2023-11-19T13:15:30;15.20;99.90
5560;DHT22;2803;47.916;8.074;2023-11-19T13:17:57;15.20;99.90
5560;DHT22;2803;47.916;8.074;2023-11-19T13:20:24;15.50;99.90
5560;DHT22;2803;47.916;8.074;2023-11-19T13:22:55;15.50;99.90
5560;DHT22;2803;47.916;8.074;2023-11-19T13:25:21;15.30;99.90
5560;DHT22;2803;47.916;8.074;2023-11-19T13:27:49;15.10;99.90
5560;DHT22;2803;47.916;8.074;2023-11-19T13:30:16;15.20;99.90
5560;DHT22;2803;47.916;8.074;2023-11-19T13:32:43;15.30;99.90
5560;DHT22;2803;47.916;8.074;2023-11-19T13:35:11;15.10;99.90
5560;DHT22;2803;47.916;8.074;2023-11-19T13:37:38;15.00;99.90
5560;DHT22;2803;47.916;8.074;2023-11-19T13:40:05;15.20;99.90
5560;DHT22;2803;47.916;8.074;2023-11-19T13:42:32;14.90;99.90
5560;DHT22;2803;47.916;8.074;2023-11-19T13:45:00;15.30;99.90
5560;DHT22;2803;47.916;8.074;2023-11-19T13:47:27;15.70;99.90
5560;DHT22;2803;47.916;8.074;2023-11-19T13:49:53;15.60;99.90
5560;DHT22;2803;47.916;8.074;2023-11-19T13:52:20;15.70;99.90
5560;DHT22;2803;47.916;8.074;2023-11-19T13:54:46;15.70;99.90
5560;DHT22;2803;47.916;8.074;2023-11-19T13:57:13;15.50;99.90
5560;DHT22;2803;47.916;8.074;2023-11-19T13:59:40;15.80;99.90
5560;DHT22;2803;47.916;8.074;2023-11-19T14:02:08;15.90;99.90
5560;DHT22;2803;47.916;8.074;2023-11-19T14:04:35;15.00;99.90
5560;DHT22;2803;47.916;8.074;2023-11-19T14:07:01;15.20;99.90
5560;DHT22;2803;47.916;8.074;2023-11-19T14:09:28;15.50;99.90
5560;DHT22;2803;47.916;8.074;2023-11-19T14:11:55;15.60;99.90
5560;DHT22;2803;47.916;8.074;2023-11-19T14:14:22;15.40;99.90
5560;DHT22;2803;47.916;8.074;2023-11-19T14:16:49;15.40;99.90
5560;DHT22;2803;47.916;8.074;2023-11-19T14:19:17;15.30;99.90
5560;DHT22;2803;47.916;8.074;2023-11-19T14:21:44;15.20;99.90
5560;DHT22;2803;47.916;8.074;2023-11-19T14:24:11;14.50;99.90
5560;DHT22;2803;47.916;8.074;2023-11-19T14:26:37;14.30;99.90
5560;DHT22;2803;47.916;8.074;2023-11-19T14:29:04;14.40;99.90
5560;DHT22;2803;47.916;8.074;2023-11-19T14:31:30;14.80;99.90
5560;DHT22;2803;47.916;8.074;2023-11-19T14:33:57;15.00;99.90
5560;DHT22;2803;47.916;8.074;2023-11-19T14:36:26;14.80;99.90
5560;DHT22;2803;47.916;8.074;2023-11-19T14:38:53;14.40;99.90
5560;DHT22;2803;47.916;8.074;2023-11-19T14:41:19;14.80;99.90
5560;DHT22;2803;47.916;8.074;2023-11-19T14:43:45;14.60;99.90
5560;DHT22;2803;47.916;8.074;2023-11-19T14:46:12;14.50;99.90
5560;DHT22;2803;47.916;8.074;2023-11-19T14:48:39;14.70;99.90
5560;DHT22;2803;47.916;8.074;2023-11-19T14:51:06;14.70;99.90
5560;DHT22;2803;47.916;8.074;2023-11-19T14:53:33;14.40;99.90
5560;DHT22;2803;47.916;8.074;2023-11-19T14:56:00;13.90;99.90
5560;DHT22;2803;47.916;8.074;2023-11-19T14:58:27;13.90;99.90
5560;DHT22;2803;47.916;8.074;2023-11-19T15:00:54;14.00;99.90
5560;DHT22;2803;47.916;8.074;2023-11-19T15:03:20;14.30;99.90
5560;DHT22;2803;47.916;8.074;2023-11-19T15:05:47;13.90;99.90
5560;DHT22;2803;47.916;8.074;2023-11-19T15:08:14;14.10;99.90
5560;DHT22;2803;47.916;8.074;2023-11-19T15:10:42;13.80;99.90
5560;DHT22;2803;47.916;8.074;2023-11-19T15:13:10;13.70;99.90
5560;DHT22;2803;47.916;8.074;2023-11-19T15:15:37;13.20;99.90
5560;DHT22;2803;47.916;8.074;2023-11-19T15:18:04;13.60;99.90
5560;DHT22;2803;47.916;8.074;2023-11-19T15:20:30;13.60;99.90
5560;DHT22;2803;47.916;8.074;2023-11-19T15:22:57;13.70;99.90
5560;DHT22;2803;47.916;8.074;2023-11-19T15:25:24;13.60;99.90
5560;DHT22;2803;47.916;8.074;2023-11-19T15:27:52;13.50;99.90
5560;DHT22;2803;47.916;8.074;2023-11-19T15:30:18;13.50;99.90
5560;DHT22;2803;47.916;8.074;2023-11-19T15:32:45;13.20;99.90
5560;DHT22;2803;47.916;8.074;2023-11-19T15:35:12;13.40;99.90
5560;DHT22;2803;47.916;8.074;2023-11-19T15:37:39;13.30;99.90
5560;DHT22;2803;47.916;8.074;2023-11-19T15:40:09;13.50;99.90
5560;DHT22;2803;47.916;8.074;2023-11-19T15:42:37;13.60;99.90
5560;DHT22;2803;47.916;8.074;2023-11-19T15:45:06;13.20;99.90
5560;DHT22;2803;47.916;8.074;2023-11-19T15:47:33;13.10;99.90
5560;DHT22;2803;47.916;8.074;2023-11-19T15:50:01;12.90;99.90
5560;DHT22;2803;47.916;8.074;2023-11-19T15:52:28;13.10;99.90
5560;DHT22;2803;47.916;8.074;2023-11-19T15:54:55;13.40;99.90
5560;DHT22;2803;47.916;8.074;2023-11-19T15:57:21;13.40;99.90
5560;DHT22;2803;47.916;8.074;2023-11-19T15:59:48;13.40;99.90
5560;DHT22;2803;47.916;8.074;2023-11-19T16:02:17;13.30;99.90
5560;DHT22;2803;47.916;8.074;2023-11-19T16:04:44;13.20;99.90
5560;DHT22;2803;47.916;8.074;2023-11-19T16:07:13;13.20;99.90
5560;DHT22;2803;47.916;8.074;2023-11-19T16:09:39;13.20;99.90